Time;durP1;ratioP1;P1;durP2;ratioP2;P2;SDS_P1;SDS_P2;PMS_P1;PMS_P2;Temp;Humidity;BMP_temperature;BMP_pressure;BME280_temperature;BME280_humidity;BME280_pressure;Samples;Min_cycle;Max_cycle;Signal;HPM_P1;HPM_P2
2021/09/22 00:01:57;;;;;;;32.47;26.95;;;23.60;49.00;;;;;;4347023;61;21089;-30
2021/09/22 00:06:58;;;;;;;30.40;25.88;;;23.60;49.00;;;;;;4344066;61;21059;-30
2021/09/22 00:11:59;;;;;;;32.17;26.55;;;23.60;49.00;;;;;;4333756;61;21105;-30
2021/09/22 00:17:00;;;;;;;30.10;25.08;;;23.60;49.00;;;;;;4333298;61;21081;-30
2021/09/22 00:22:01;;;;;;;29.55;25.62;;;23.60;49.00;;;;;;4329127;64;21659;-29
2021/09/22 00:27:02;;;;;;;30.12;25.15;;;23.60;49.10;;;;;;4350100;61;21033;-28
2021/09/22 00:32:04;;;;;;;29.50;25.55;;;23.60;49.00;;;;;;4345939;60;21133;-30
2021/09/22 00:37:06;;;;;;;29.70;25.33;;;23.60;49.00;;;;;;4369192;60;21077;-31
2021/09/22 00:42:07;;;;;;;27.58;24.17;;;23.60;49.10;;;;;;4329098;64;21591;-21
2021/09/22 00:47:07;;;;;;;28.20;24.33;;;23.60;49.10;;;;;;4350837;60;21088;-31
2021/09/22 00:52:11;;;;;;;30.20;24.35;;;23.60;49.00;;;;;;4361272;61;21061;-29
2021/09/22 00:57:15;;;;;;;27.10;23.80;;;23.60;49.00;;;;;;4328312;64;21088;-24
2021/09/22 01:02:17;;;;;;;26.52;23.20;;;23.60;49.00;;;;;;4339562;61;21136;-32
2021/09/22 01:07:17;;;;;;;26.75;22.95;;;23.50;49.00;;;;;;4367658;61;21515;-33
2021/09/22 01:12:18;;;;;;;26.02;23.23;;;23.50;49.50;;;;;;4331870;61;21097;-31
2021/09/22 01:17:20;;;;;;;26.10;22.75;;;23.60;49.10;;;;;;4328117;64;21557;-34
2021/09/22 01:22:20;;;;;;;26.48;23.02;;;23.60;49.00;;;;;;4371919;61;21117;-33
2021/09/22 01:27:21;;;;;;;26.50;22.95;;;23.60;49.00;;;;;;4328279;64;22443;-30
2021/09/22 01:32:23;;;;;;;25.33;21.50;;;23.50;49.10;;;;;;4347127;61;21073;-34
2021/09/22 01:37:24;;;;;;;24.35;21.05;;;23.50;49.00;;;;;;4338549;61;21563;-34
2021/09/22 01:42:24;;;;;;;24.50;20.83;;;23.50;49.00;;;;;;4340018;60;21108;-33
2021/09/22 01:47:25;;;;;;;24.30;21.70;;;23.60;49.00;;;;;;4341350;61;21144;-30
2021/09/22 01:52:26;;;;;;;25.40;21.33;;;23.50;49.00;;;;;;4340550;61;21081;-33
2021/09/22 01:57:27;;;;;;;23.48;20.23;;;23.50;49.00;;;;;;4340990;60;21547;-31
2021/09/22 02:02:28;;;;;;;23.83;20.67;;;23.50;49.00;;;;;;4328891;64;21146;-31
2021/09/22 02:07:31;;;;;;;24.05;20.80;;;23.50;49.10;;;;;;4329111;64;21549;-33
2021/09/22 02:12:32;;;;;;;25.10;20.67;;;23.50;49.00;;;;;;4329996;61;21100;-33
2021/09/22 02:17:33;;;;;;;24.30;20.00;;;23.50;49.00;;;;;;4328458;64;21137;-33
2021/09/22 02:22:34;;;;;;;21.95;19.50;;;23.50;49.00;;;;;;4336412;61;21558;-31
2021/09/22 02:27:35;;;;;;;24.40;19.62;;;23.50;49.00;;;;;;4362259;60;21176;-32
2021/09/22 02:32:37;;;;;;;22.42;19.37;;;23.50;49.00;;;;;;4328773;61;21164;-34
2021/09/22 02:37:38;;;;;;;21.40;19.10;;;23.40;48.90;;;;;;4357286;61;21060;-33
2021/09/22 02:42:39;;;;;;;22.37;19.00;;;23.50;49.00;;;;;;4349695;61;21041;-22
2021/09/22 02:47:40;;;;;;;20.42;18.23;;;23.40;48.90;;;;;;4360847;61;21128;-32
2021/09/22 02:52:41;;;;;;;21.00;18.58;;;23.40;48.90;;;;;;4338614;61;21044;-29
2021/09/22 02:57:43;;;;;;;19.77;17.65;;;23.50;48.90;;;;;;4328967;61;21085;-33
2021/09/22 03:02:43;;;;;;;22.02;18.08;;;23.40;48.80;;;;;;4364544;60;21116;-29
2021/09/22 03:07:45;;;;;;;19.80;17.70;;;23.40;48.80;;;;;;4328608;64;21061;-32
2021/09/22 03:12:46;;;;;;;19.48;17.37;;;23.40;48.80;;;;;;4346491;61;21152;-33
2021/09/22 03:17:48;;;;;;;20.55;18.35;;;23.40;48.80;;;;;;4337967;61;21182;-33
2021/09/22 03:22:48;;;;;;;19.67;17.58;;;23.40;48.80;;;;;;4347627;61;21586;-33
2021/09/22 03:27:49;;;;;;;19.65;17.20;;;23.40;48.80;;;;;;4332298;61;21141;-32
2021/09/22 03:32:50;;;;;;;17.98;16.08;;;23.40;48.80;;;;;;4329289;64;21115;-33
2021/09/22 03:37:51;;;;;;;18.67;16.67;;;23.40;48.70;;;;;;4327705;64;21076;-30
2021/09/22 03:42:52;;;;;;;18.33;16.30;;;23.40;48.70;;;;;;4329625;61;21117;-35
2021/09/22 03:47:52;;;;;;;19.00;15.98;;;23.40;48.70;;;;;;4328678;64;21118;-34
2021/09/22 03:52:53;;;;;;;18.40;16.40;;;23.40;49.30;;;;;;4337174;61;21571;-34
2021/09/22 03:57:54;;;;;;;18.50;16.52;;;23.40;48.70;;;;;;4329785;61;21069;-34
2021/09/22 04:02:55;;;;;;;17.58;15.68;;;23.40;48.80;;;;;;4362489;61;21089;-35
2021/09/22 04:07:56;;;;;;;18.60;15.45;;;23.40;48.70;;;;;;4364340;61;21080;-33
2021/09/22 04:12:56;;;;;;;17.05;14.82;;;23.40;48.70;;;;;;4327454;64;21133;-30
2021/09/22 04:17:57;;;;;;;17.40;15.52;;;23.40;48.70;;;;;;4342462;61;22096;-33
2021/09/22 04:23:01;;;;;;;18.33;15.95;;;23.40;48.80;;;;;;4328451;64;21092;-32
2021/09/22 04:28:02;;;;;;;16.98;14.95;;;23.40;48.70;;;;;;4328284;64;22463;-32
2021/09/22 04:33:03;;;;;;;16.15;14.45;;;23.30;48.70;;;;;;4359857;61;21133;-32
2021/09/22 04:38:05;;;;;;;17.17;14.80;;;23.30;48.60;;;;;;4356621;60;21125;-34
2021/09/22 04:43:09;;;;;;;15.13;13.57;;;23.30;48.70;;;;;;4336719;61;21140;-31
2021/09/22 04:48:10;;;;;;;16.83;14.93;;;23.30;48.70;;;;;;4356845;61;21092;-32
2021/09/22 04:53:10;;;;;;;16.80;15.00;;;23.30;48.60;;;;;;4351678;61;21547;-30
2021/09/22 04:58:11;;;;;;;16.92;14.27;;;23.30;48.60;;;;;;4328146;64;21133;-35
2021/09/22 05:03:12;;;;;;;15.65;13.95;;;23.30;48.70;;;;;;4337143;61;21118;-33
2021/09/22 05:08:13;;;;;;;16.70;14.27;;;23.30;48.60;;;;;;4331621;61;21656;-32
2021/09/22 05:13:14;;;;;;;15.32;13.30;;;23.30;48.60;;;;;;4329758;61;21247;-33
2021/09/22 05:18:15;;;;;;;16.52;14.52;;;23.30;48.60;;;;;;4337697;61;21073;-34
2021/09/22 05:23:16;;;;;;;15.88;13.65;;;23.30;48.60;;;;;;4328816;64;21122;-33
2021/09/22 05:28:17;;;;;;;15.10;13.20;;;23.30;48.60;;;;;;4354655;61;21551;-33
2021/09/22 05:33:18;;;;;;;15.10;13.10;;;23.30;49.20;;;;;;4339257;61;21130;-35
2021/09/22 05:38:19;;;;;;;15.25;13.55;;;23.30;48.50;;;;;;4331313;61;21076;-29
2021/09/22 05:43:19;;;;;;;17.00;14.02;;;23.30;48.40;;;;;;4338750;61;21122;-34
2021/09/22 05:48:20;;;;;;;16.23;13.62;;;23.20;48.40;;;;;;4339109;61;21599;-34
2021/09/22 05:53:21;;;;;;;14.68;13.15;;;23.30;48.50;;;;;;4339601;61;21097;-31
2021/09/22 05:58:22;;;;;;;15.77;13.43;;;23.30;48.40;;;;;;4327880;64;21158;-32
2021/09/22 06:03:23;;;;;;;16.58;13.82;;;23.30;48.40;;;;;;4351338;61;21608;-28
2021/09/22 06:08:26;;;;;;;16.10;13.85;;;23.30;48.30;;;;;;4335058;61;21057;-33
2021/09/22 06:13:28;;;;;;;15.20;13.43;;;23.20;48.30;;;;;;4371860;61;21089;-33
2021/09/22 06:18:29;;;;;;;16.25;14.23;;;23.20;48.30;;;;;;4329611;61;21089;-33
2021/09/22 06:23:30;;;;;;;16.42;13.70;;;23.20;48.30;;;;;;4334534;61;21558;-34
2021/09/22 06:28:30;;;;;;;17.27;14.87;;;23.20;48.20;;;;;;4329213;61;21113;-32
2021/09/22 06:33:31;;;;;;;16.67;13.52;;;23.20;48.30;;;;;;4350721;61;21069;-35
2021/09/22 06:38:32;;;;;;;15.85;13.55;;;23.20;48.20;;;;;;4333698;61;21069;-35
2021/09/22 06:43:33;;;;;;;17.92;14.23;;;23.20;48.20;;;;;;4328492;64;21138;-33
2021/09/22 06:48:34;;;;;;;18.67;14.77;;;23.20;48.30;;;;;;4333941;61;21131;-27
2021/09/22 06:53:37;;;;;;;16.42;14.52;;;23.20;48.30;;;;;;4336886;61;21566;-34
2021/09/22 06:58:38;;;;;;;16.85;14.48;;;23.20;48.80;;;;;;4331118;61;21267;-33
2021/09/22 07:03:39;;;;;;;17.02;13.93;;;23.20;48.30;;;;;;4354008;61;21088;-34
2021/09/22 07:08:40;;;;;;;16.90;15.13;;;23.20;48.40;;;;;;4357941;61;21145;-33
2021/09/22 07:13:41;;;;;;;16.37;14.60;;;23.20;48.30;;;;;;4331570;61;21124;-35
2021/09/22 07:18:45;;;;;;;18.90;15.50;;;23.20;49.00;;;;;;4374671;61;21126;-31
2021/09/22 07:23:46;;;;;;;16.75;14.70;;;23.20;49.10;;;;;;4329254;64;21575;-31
2021/09/22 07:28:47;;;;;;;35.75;25.85;;;23.20;48.80;;;;;;4327424;61;21073;-26
2021/09/22 07:33:48;;;;;;;38.63;29.40;;;23.30;46.60;;;;;;4330659;61;21125;-31
2021/09/22 07:38:49;;;;;;;40.10;30.52;;;23.20;46.30;;;;;;4332188;61;21538;-30
2021/09/22 07:43:49;;;;;;;49.83;31.12;;;23.20;45.80;;;;;;4329611;61;21136;-25
2021/09/22 07:48:50;;;;;;;46.37;34.65;;;23.20;45.30;;;;;;4352864;61;21064;-31
2021/09/22 07:53:51;;;;;;;53.13;36.40;;;23.20;45.00;;;;;;4333223;61;21084;-32
2021/09/22 07:58:52;;;;;;;51.72;37.42;;;23.10;44.70;;;;;;4327798;64;21512;-29
2021/09/22 08:03:53;;;;;;;53.70;39.95;;;23.10;44.60;;;;;;4352815;61;21080;-31
2021/09/22 08:08:54;;;;;;;56.10;41.40;;;23.10;44.40;;;;;;4332274;61;21580;-33
2021/09/22 08:13:54;;;;;;;60.72;43.85;;;23.10;44.50;;;;;;4347867;61;21222;-30
2021/09/22 08:18:55;;;;;;;66.72;44.20;;;23.10;44.50;;;;;;4328354;61;21081;-35
2021/09/22 08:23:56;;;;;;;63.50;48.30;;;23.10;44.90;;;;;;4338107;61;21540;-31
2021/09/22 08:28:57;;;;;;;76.10;53.87;;;23.10;44.60;;;;;;4328227;61;21085;-31
2021/09/22 08:33:58;;;;;;;77.03;56.28;;;23.10;44.50;;;;;;4328492;64;21128;-32
2021/09/22 08:38:58;;;;;;;80.03;56.58;;;23.10;44.50;;;;;;4356882;61;21045;-30
2021/09/22 08:44:03;;;;;;;78.95;57.33;;;23.10;44.40;;;;;;4329254;61;21049;-32
2021/09/22 08:49:05;;;;;;;78.07;57.80;;;23.10;44.40;;;;;;4359045;61;21053;-32
2021/09/22 08:54:06;;;;;;;82.20;60.67;;;23.10;44.50;;;;;;4327958;64;21110;-31
2021/09/22 08:59:08;;;;;;;126.90;99.78;;;23.10;44.40;;;;;;4344926;61;21073;-34
2021/09/22 09:04:17;;;;;;;187.07;148.05;;;23.10;44.60;;;;;;4329589;61;21580;-32
2021/09/22 09:09:18;;;;;;;162.50;123.82;;;23.10;44.70;;;;;;4328741;64;21603;-33
2021/09/22 09:14:19;;;;;;;137.77;102.45;;;23.10;44.70;;;;;;4334980;61;21120;-29
2021/09/22 09:19:23;;;;;;;118.45;89.60;;;23.10;44.70;;;;;;4328137;64;21049;-30
2021/09/22 09:24:42;;;;;;;107.93;81.47;;;23.10;44.60;;;;;;4378991;60;21136;-31
2021/09/22 09:29:43;;;;;;;109.57;80.00;;;23.10;44.70;;;;;;4328284;64;21264;-29
2021/09/22 09:35:17;;;;;;;104.10;75.37;;;23.10;44.60;;;;;;4357356;61;21598;-32
2021/09/22 09:40:33;;;;;;;106.97;74.80;;;23.10;44.60;;;;;;4334629;61;21089;-29
2021/09/22 09:45:40;;;;;;;103.00;73.00;;;23.10;44.60;;;;;;4332992;61;21109;-31
2021/09/22 09:50:47;;;;;;;105.90;72.70;;;23.10;44.60;;;;;;4336044;61;21145;-30
2021/09/22 09:55:48;;;;;;;127.75;76.53;;;23.10;44.60;;;;;;4337473;61;21145;-34
2021/09/22 10:00:50;;;;;;;128.02;80.25;;;23.10;44.80;;;;;;4330640;61;21081;-29
2021/09/22 10:05:53;;;;;;;121.05;76.90;;;23.10;44.60;;;;;;4363112;60;21076;-33
2021/09/22 10:10:55;;;;;;;114.10;77.10;;;23.10;44.40;;;;;;4332218;61;21089;-32
2021/09/22 10:15:56;;;;;;;115.45;78.80;;;23.10;44.40;;;;;;4337768;61;21539;-35
2021/09/22 10:20:57;;;;;;;122.75;85.47;;;23.10;44.50;;;;;;4328512;64;21077;-32
2021/09/22 10:25:59;;;;;;;121.10;81.47;;;23.10;44.20;;;;;;4328142;64;21120;-32
2021/09/22 10:31:00;;;;;;;148.40;106.05;;;23.10;44.90;;;;;;4333902;61;21073;-34
2021/09/22 10:36:04;;;;;;;189.75;137.68;;;23.10;44.80;;;;;;4328301;64;21619;-28
2021/09/22 10:41:05;;;;;;;192.85;134.98;;;23.10;44.70;;;;;;4327978;64;21523;-30
2021/09/22 10:46:14;;;;;;;164.00;119.15;;;23.10;44.30;;;;;;4342940;61;21061;-36
2021/09/22 10:51:37;;;;;;;164.37;116.50;;;23.10;44.10;;;;;;4360702;61;21057;-33
2021/09/22 10:56:58;;;;;;;144.37;106.85;;;23.00;44.10;;;;;;4359285;61;22090;-35
2021/09/22 11:02:00;;;;;;;137.07;99.65;;;23.00;44.00;;;;;;4328564;64;21117;-32
2021/09/22 11:07:01;;;;;;;123.18;92.45;;;23.00;44.00;;;;;;4352734;60;21796;-34
2021/09/22 11:12:06;;;;;;;118.15;87.37;;;23.00;44.00;;;;;;4341017;61;21173;-34
2021/09/22 11:17:29;;;;;;;115.18;82.03;;;23.00;44.00;;;;;;4352194;61;21109;-31
2021/09/22 11:22:33;;;;;;;101.10;74.12;;;23.00;43.90;;;;;;4329094;64;21587;-30
2021/09/22 11:27:34;;;;;;;104.65;73.10;;;23.00;43.60;;;;;;4329002;64;21080;-34
2021/09/22 11:32:41;;;;;;;97.15;73.40;;;23.00;43.60;;;;;;4328551;64;21041;-30
2021/09/22 11:37:44;;;;;;;96.18;70.95;;;23.00;43.70;;;;;;4327943;64;21210;-27
2021/09/22 11:43:04;;;;;;;90.07;68.62;;;23.00;43.50;;;;;;4335306;61;21623;-31
2021/09/22 11:48:07;;;;;;;91.15;67.25;;;23.00;43.50;;;;;;4337181;60;21615;-33
2021/09/22 11:53:13;;;;;;;99.97;71.68;;;23.00;43.40;;;;;;4328872;64;21041;-31
2021/09/22 11:58:25;;;;;;;95.22;68.00;;;23.00;43.00;;;;;;4381810;61;21077;-31
2021/09/22 12:03:37;;;;;;;83.45;65.68;;;23.00;42.80;;;;;;4340915;61;21651;-34
2021/09/22 12:08:39;;;;;;;82.12;62.67;;;23.00;42.60;;;;;;4341099;61;21049;-32
2021/09/22 12:13:46;;;;;;;80.95;61.60;;;23.00;42.60;;;;;;4336956;61;21093;-33
2021/09/22 12:18:52;;;;;;;;;;;23.00;42.30;;;;;;4333650;61;21220;-31
2021/09/22 12:23:53;;;;;;;72.78;56.05;;;23.00;42.10;;;;;;4344057;60;20161;-31
2021/09/22 12:29:12;;;;;;;72.15;54.58;;;23.00;42.10;;;;;;4328217;60;21069;-32
2021/09/22 12:34:25;;;;;;;66.82;50.97;;;23.00;42.20;;;;;;4334636;61;21552;-34
2021/09/22 12:39:27;;;;;;;64.50;49.65;;;23.00;42.20;;;;;;4347317;61;21093;-32
2021/09/22 12:44:29;;;;;;;59.35;48.58;;;23.00;42.30;;;;;;4339236;61;21555;-33
2021/09/22 12:49:30;;;;;;;59.83;47.72;;;23.10;42.40;;;;;;4331048;61;21069;-29
2021/09/22 12:54:31;;;;;;;61.88;48.20;;;23.10;42.40;;;;;;4345101;61;21088;-28
2021/09/22 12:59:32;;;;;;;59.58;48.22;;;23.10;42.50;;;;;;4347808;61;21093;-31
2021/09/22 13:04:34;;;;;;;64.60;50.70;;;23.10;42.40;;;;;;4328912;64;21551;-30
2021/09/22 13:09:36;;;;;;;62.83;52.38;;;23.10;42.50;;;;;;4345785;60;21540;-27
2021/09/22 13:14:39;;;;;;;61.42;49.40;;;23.10;42.40;;;;;;4344573;60;21149;-28
2021/09/22 13:19:41;;;;;;;58.42;45.83;;;23.10;42.30;;;;;;4347691;61;21084;-32
2021/09/22 13:24:41;;;;;;;57.78;45.47;;;23.10;42.20;;;;;;4330662;61;21644;-33
2021/09/22 13:29:44;;;;;;;55.95;43.87;;;23.10;42.00;;;;;;4341907;61;21093;-29
2021/09/22 13:34:44;;;;;;;48.92;40.17;;;23.10;42.00;;;;;;4328688;64;21081;-29
2021/09/22 13:39:45;;;;;;;48.95;38.22;;;23.10;41.90;;;;;;4340596;61;21143;-27
2021/09/22 13:44:46;;;;;;;47.35;36.90;;;23.10;41.80;;;;;;4342360;61;21080;-30
2021/09/22 13:49:47;;;;;;;49.15;37.80;;;23.10;41.70;;;;;;4340234;61;21102;-32
2021/09/22 13:54:47;;;;;;;44.58;35.63;;;23.10;41.80;;;;;;4358562;61;21583;-31
2021/09/22 13:59:48;;;;;;;46.53;34.97;;;23.10;41.80;;;;;;4332365;61;21124;-34
2021/09/22 14:04:49;;;;;;;47.08;37.72;;;23.10;41.80;;;;;;4328647;64;21100;-31
2021/09/22 14:09:50;;;;;;;52.60;40.45;;;23.10;41.80;;;;;;4340188;60;21140;-29
2021/09/22 14:14:51;;;;;;;50.45;38.95;;;23.10;41.80;;;;;;4332804;61;21077;-31
2021/09/22 14:19:52;;;;;;;57.05;41.97;;;23.10;41.70;;;;;;4328705;64;21078;-31
2021/09/22 14:24:53;;;;;;;52.72;40.63;;;23.10;41.80;;;;;;4344083;61;21050;-31
2021/09/22 14:29:54;;;;;;;54.95;44.13;;;23.10;42.50;;;;;;4336193;60;21693;-32
2021/09/22 14:34:55;;;;;;;58.78;43.20;;;23.10;42.10;;;;;;4362118;61;21110;-26
2021/09/22 14:39:56;;;;;;;61.45;45.80;;;23.10;42.00;;;;;;4327794;64;21048;-28
2021/09/22 14:44:57;;;;;;;62.00;46.22;;;23.10;42.20;;;;;;4372235;61;21057;-32
2021/09/22 14:49:57;;;;;;;76.55;52.90;;;23.10;42.30;;;;;;4345020;61;21126;-31
2021/09/22 14:54:59;;;;;;;93.35;66.43;;;23.10;42.20;;;;;;4340180;61;21151;-28
2021/09/22 15:00:01;;;;;;;102.22;73.55;;;23.10;42.40;;;;;;4348005;61;21535;-30
2021/09/22 15:05:02;;;;;;;107.18;78.03;;;23.10;42.40;;;;;;4341197;61;21052;-34
2021/09/22 15:10:04;;;;;;;96.22;71.68;;;23.10;42.50;;;;;;4333687;61;21104;-31
2021/09/22 15:15:06;;;;;;;89.87;66.20;;;23.10;42.70;;;;;;4328622;64;21084;-33
2021/09/22 15:20:09;;;;;;;86.95;66.10;;;23.10;42.80;;;;;;4344191;61;21158;-37
2021/09/22 15:25:11;;;;;;;83.87;62.60;;;23.10;43.00;;;;;;4333371;60;21189;-22
2021/09/22 15:30:17;;;;;;;81.32;60.58;;;23.00;43.00;;;;;;4328270;64;21121;-23
2021/09/22 15:35:18;;;;;;;80.30;60.60;;;23.00;43.10;;;;;;4353723;61;21076;-30
2021/09/22 15:40:22;;;;;;;74.78;57.58;;;23.00;43.20;;;;;;4347220;61;21149;-29
2021/09/22 15:45:23;;;;;;;72.32;55.80;;;23.00;43.30;;;;;;4347204;60;21052;-32
2021/09/22 15:50:24;;;;;;;69.15;54.47;;;23.00;43.50;;;;;;4330917;61;21101;-32
2021/09/22 15:55:27;;;;;;;69.37;54.13;;;23.00;43.60;;;;;;4341787;60;21550;-26
2021/09/22 16:00:28;;;;;;;68.03;52.67;;;23.00;43.70;;;;;;4372139;61;21088;-31
2021/09/22 16:05:29;;;;;;;67.40;51.95;;;23.00;43.80;;;;;;4347879;60;21153;-31
2021/09/22 16:10:30;;;;;;;69.32;52.10;;;23.00;44.00;;;;;;4327446;64;21093;-31
2021/09/22 16:15:31;;;;;;;66.25;50.58;;;23.00;44.10;;;;;;4328159;64;21512;-31
2021/09/22 16:20:32;;;;;;;64.68;51.13;;;23.00;44.10;;;;;;4346821;61;21089;-32
2021/09/22 16:25:33;;;;;;;63.78;50.63;;;23.00;44.20;;;;;;4405114;60;21125;-30
2021/09/22 16:30:34;;;;;;;65.57;49.28;;;23.00;44.30;;;;;;4328593;64;21354;-30
2021/09/22 16:35:35;;;;;;;58.97;48.70;;;23.00;44.40;;;;;;4431332;60;21666;-32
2021/09/22 16:40:36;;;;;;;61.15;48.15;;;23.00;44.50;;;;;;4379496;61;21094;-32
2021/09/22 16:45:37;;;;;;;61.63;47.88;;;23.00;44.60;;;;;;4351001;61;21133;-32
2021/09/22 16:50:37;;;;;;;60.90;47.15;;;23.00;44.70;;;;;;4328926;61;22262;-33
2021/09/22 16:55:38;;;;;;;60.45;47.45;;;23.00;44.70;;;;;;4342558;61;21061;-28
2021/09/22 17:00:39;;;;;;;57.88;46.60;;;23.00;44.80;;;;;;4335809;61;21072;-29
2021/09/22 17:05:40;;;;;;;57.22;44.75;;;23.00;44.90;;;;;;4356465;60;21127;-31
2021/09/22 17:10:41;;;;;;;57.92;45.10;;;23.00;45.00;;;;;;4327906;61;21704;-31
2021/09/22 17:15:42;;;;;;;56.72;45.42;;;23.00;45.10;;;;;;4328418;61;21122;-25
2021/09/22 17:20:43;;;;;;;55.25;44.83;;;23.00;45.10;;;;;;4328056;64;21104;-30
2021/09/22 17:25:48;;;;;;;54.90;45.08;;;23.00;45.30;;;;;;4381115;61;21065;-34
2021/09/22 17:30:49;;;;;;;55.42;44.88;;;23.00;45.30;;;;;;4331545;61;21085;-32
2021/09/22 17:35:50;;;;;;;50.88;41.85;;;23.00;45.30;;;;;;4349792;61;21193;-33
2021/09/22 17:40:53;;;;;;;52.53;43.50;;;23.00;45.50;;;;;;4357284;61;21105;-33
2021/09/22 17:45:53;;;;;;;54.58;43.15;;;23.00;45.50;;;;;;4337375;61;21542;-29
2021/09/22 17:50:54;;;;;;;55.50;42.72;;;23.00;45.60;;;;;;4365599;61;21093;-32
2021/09/22 17:55:55;;;;;;;53.60;43.60;;;23.00;45.60;;;;;;4362050;61;21114;-31
2021/09/22 18:00:56;;;;;;;53.20;43.15;;;23.00;45.70;;;;;;4328434;64;21543;-29
2021/09/22 18:05:58;;;;;;;52.30;41.60;;;23.00;46.10;;;;;;4328440;64;21086;-27
2021/09/22 18:10:59;;;;;;;50.28;42.30;;;23.00;45.80;;;;;;4342622;60;21200;-32
2021/09/22 18:16:00;;;;;;;49.97;42.05;;;23.00;45.90;;;;;;4327669;64;21056;-34
2021/09/22 18:21:01;;;;;;;52.03;42.25;;;23.00;45.90;;;;;;4340316;61;21085;-30
2021/09/22 18:26:03;;;;;;;51.85;42.42;;;23.00;46.00;;;;;;4362155;61;21098;-33
2021/09/22 18:31:05;;;;;;;51.50;41.30;;;23.00;46.00;;;;;;4328267;64;22234;-32
2021/09/22 18:36:06;;;;;;;50.83;42.42;;;23.00;46.10;;;;;;4348309;61;21516;-31
2021/09/22 18:41:07;;;;;;;48.45;41.08;;;23.00;46.10;;;;;;4363935;61;21127;-32
2021/09/22 18:46:07;;;;;;;49.70;40.80;;;22.90;46.20;;;;;;4328397;64;21172;-32
2021/09/22 18:51:09;;;;;;;52.10;42.05;;;23.00;46.90;;;;;;4328455;64;21108;-34
2021/09/22 18:56:10;;;;;;;49.40;39.45;;;23.00;46.30;;;;;;4360625;61;21080;-34
2021/09/22 19:01:11;;;;;;;47.85;39.17;;;23.00;46.40;;;;;;4339489;61;21067;-32
2021/09/22 19:06:12;;;;;;;46.92;39.55;;;23.00;46.50;;;;;;4334584;61;21052;-33
2021/09/22 19:11:13;;;;;;;49.35;41.17;;;22.90;45.90;;;;;;4366188;60;21575;-34
2021/09/22 19:16:14;;;;;;;47.15;39.35;;;22.90;46.50;;;;;;4368866;61;21073;-31
2021/09/22 19:21:17;;;;;;;47.33;39.95;;;22.90;46.50;;;;;;4350699;61;21196;-32
2021/09/22 19:26:20;;;;;;;47.10;39.90;;;22.90;46.60;;;;;;4334296;61;21062;-32
2021/09/22 19:31:21;;;;;;;44.40;38.78;;;22.90;46.60;;;;;;4344494;60;21124;-34
2021/09/22 19:36:22;;;;;;;47.35;38.63;;;22.90;46.70;;;;;;4349181;61;21607;-31
2021/09/22 19:41:23;;;;;;;47.13;38.80;;;22.90;46.70;;;;;;4328546;64;21064;-33
2021/09/22 19:46:24;;;;;;;45.00;38.65;;;22.90;46.70;;;;;;4404653;60;21116;-33
2021/09/22 19:51:26;;;;;;;44.35;37.30;;;22.90;46.80;;;;;;4369225;60;21081;-33
2021/09/22 19:56:33;;;;;;;44.28;36.88;;;22.90;46.80;;;;;;4420357;60;21057;-32
2021/09/22 20:01:35;;;;;;;42.73;36.13;;;22.90;46.90;;;;;;4358428;60;21594;-29
2021/09/22 20:06:38;;;;;;;44.05;36.72;;;22.90;46.90;;;;;;4367283;61;21599;-32
2021/09/22 20:11:40;;;;;;;44.72;37.85;;;22.90;46.90;;;;;;4343514;60;21567;-34
2021/09/22 20:16:41;;;;;;;40.65;35.05;;;22.90;46.90;;;;;;4342084;61;21120;-34
2021/09/22 20:21:42;;;;;;;41.42;35.97;;;22.90;47.00;;;;;;4362250;61;21065;-32
2021/09/22 20:26:43;;;;;;;42.70;35.47;;;22.90;47.00;;;;;;4352371;61;21096;-34
2021/09/22 20:31:44;;;;;;;41.60;35.63;;;22.90;47.00;;;;;;4346389;61;21081;-33
2021/09/22 20:36:46;;;;;;;39.38;32.88;;;22.90;47.00;;;;;;4334437;61;21775;-32
2021/09/22 20:41:48;;;;;;;40.55;35.22;;;22.90;47.10;;;;;;4361931;61;21129;-32
2021/09/22 20:46:49;;;;;;;40.53;34.55;;;22.90;47.10;;;;;;4369342;60;21653;-31
2021/09/22 20:51:50;;;;;;;39.28;33.72;;;22.90;47.10;;;;;;4361541;60;21072;-31
2021/09/22 20:56:51;;;;;;;40.33;33.90;;;22.90;47.20;;;;;;4356327;60;21162;-26
2021/09/22 21:01:52;;;;;;;39.83;33.45;;;22.90;47.20;;;;;;4341353;61;21611;-27
2021/09/22 21:06:52;;;;;;;40.78;33.65;;;22.90;47.20;;;;;;4342071;60;21501;-32
2021/09/22 21:11:53;;;;;;;37.25;31.62;;;22.90;47.20;;;;;;4359360;61;21124;-35
2021/09/22 21:16:55;;;;;;;38.05;32.33;;;22.90;47.30;;;;;;4341355;60;21932;-32
2021/09/22 21:21:57;;;;;;;38.72;32.22;;;22.90;47.40;;;;;;4331484;61;21099;-34
2021/09/22 21:26:57;;;;;;;36.72;31.90;;;22.90;47.40;;;;;;4328855;64;21092;-30
2021/09/22 21:31:58;;;;;;;37.10;31.15;;;22.90;47.30;;;;;;4328597;64;21662;-33
2021/09/22 21:37:00;;;;;;;37.75;30.05;;;22.90;47.40;;;;;;4347420;61;21171;-29
2021/09/22 21:42:01;;;;;;;35.88;30.88;;;22.90;47.40;;;;;;4341848;61;21069;-28
2021/09/22 21:47:02;;;;;;;35.85;30.83;;;22.90;47.50;;;;;;4341491;61;21586;-30
2021/09/22 21:52:04;;;;;;;35.70;30.70;;;22.90;47.50;;;;;;4362837;61;21085;-33
2021/09/22 21:57:05;;;;;;;37.28;31.02;;;22.90;47.50;;;;;;4340111;61;21077;-33
2021/09/22 22:02:06;;;;;;;36.05;29.85;;;22.80;47.50;;;;;;4338905;61;21113;-33
2021/09/22 22:07:06;;;;;;;32.45;28.23;;;22.90;47.60;;;;;;4350262;61;21100;-30
2021/09/22 22:12:07;;;;;;;34.00;29.10;;;22.80;47.50;;;;;;4401883;60;21594;-32
2021/09/22 22:17:09;;;;;;;36.25;29.55;;;22.80;47.50;;;;;;4329141;61;21994;-28
2021/09/22 22:22:10;;;;;;;34.78;29.50;;;22.80;47.50;;;;;;4330804;60;21057;-30
2021/09/22 22:27:11;;;;;;;34.97;29.50;;;22.80;47.60;;;;;;4340044;61;21130;-31
2021/09/22 22:32:12;;;;;;;33.00;27.70;;;22.80;47.70;;;;;;4333353;61;21077;-32
2021/09/22 22:37:15;;;;;;;32.28;28.02;;;22.80;47.70;;;;;;4328439;60;21522;-30
2021/09/22 22:42:17;;;;;;;33.95;28.95;;;22.90;47.70;;;;;;4335281;61;21528;-33
2021/09/22 22:47:17;;;;;;;32.20;27.75;;;22.80;47.70;;;;;;4344344;61;21093;-34
2021/09/22 22:52:19;;;;;;;36.63;28.75;;;22.80;47.70;;;;;;4347384;61;21857;-32
2021/09/22 22:57:20;;;;;;;31.33;27.15;;;22.90;47.80;;;;;;4343415;60;21069;-33
2021/09/22 23:02:21;;;;;;;30.70;26.95;;;22.80;47.80;;;;;;4348713;61;21962;-32
2021/09/22 23:07:21;;;;;;;31.15;27.00;;;22.80;47.80;;;;;;4348238;61;21117;-32
2021/09/22 23:12:24;;;;;;;29.85;25.35;;;22.80;47.90;;;;;;4335161;61;21096;-31
2021/09/22 23:17:39;;;;;;;29.30;26.05;;;22.80;47.90;;;;;;4336798;61;21570;-32
2021/09/22 23:23:13;;;;;;;29.75;26.35;;;22.80;47.90;;;;;;4328689;64;21599;-32
2021/09/22 23:28:17;;;;;;;31.95;26.20;;;22.80;47.90;;;;;;4332893;61;21631;-30
2021/09/22 23:33:18;;;;;;;31.80;26.55;;;22.80;47.90;;;;;;4333958;61;21183;-35
2021/09/22 23:38:19;;;;;;;29.25;25.83;;;22.80;48.00;;;;;;4334134;61;21640;-34
2021/09/22 23:43:20;;;;;;;31.08;26.17;;;22.80;48.00;;;;;;4334561;60;21176;-32
2021/09/22 23:48:21;;;;;;;28.05;24.12;;;22.80;48.00;;;;;;4335882;61;21546;-33
2021/09/22 23:53:22;;;;;;;28.87;24.98;;;22.80;48.00;;;;;;4354944;60;21097;-31
2021/09/22 23:58:23;;;;;;;29.08;24.30;;;22.80;48.10;;;;;;4335627;61;21076;-29
